sensor_id;sensor_type;location;lat;lon;timestamp;P1;durP1;ratioP1;P2;durP2;ratioP2
70073;SDS011;57445;51.058;3.698;2022-11-23T00:02:12;8.05;;;3.35;;
70073;SDS011;57445;51.058;3.698;2022-11-23T00:04:44;11.02;;;3.33;;
70073;SDS011;57445;51.058;3.698;2022-11-23T00:07:13;10.27;;;3.40;;
70073;SDS011;57445;51.058;3.698;2022-11-23T00:09:46;8.52;;;2.88;;
70073;SDS011;57445;51.058;3.698;2022-11-23T00:12:13;11.20;;;3.40;;
70073;SDS011;57445;51.058;3.698;2022-11-23T00:14:45;12.73;;;3.78;;
70073;SDS011;57445;51.058;3.698;2022-11-23T00:17:13;9.52;;;3.70;;
70073;SDS011;57445;51.058;3.698;2022-11-23T00:19:45;10.05;;;3.53;;
70073;SDS011;57445;51.058;3.698;2022-11-23T00:22:19;7.50;;;3.22;;
70073;SDS011;57445;51.058;3.698;2022-11-23T00:24:51;8.63;;;3.30;;
70073;SDS011;57445;51.058;3.698;2022-11-23T00:27:19;8.65;;;3.10;;
70073;SDS011;57445;51.058;3.698;2022-11-23T00:29:47;9.88;;;3.28;;
70073;SDS011;57445;51.058;3.698;2022-11-23T00:32:14;16.25;;;3.80;;
70073;SDS011;57445;51.058;3.698;2022-11-23T00:34:42;9.32;;;3.40;;
70073;SDS011;57445;51.058;3.698;2022-11-23T00:37:09;9.38;;;3.17;;
70073;SDS011;57445;51.058;3.698;2022-11-23T00:39:38;8.98;;;3.17;;
70073;SDS011;57445;51.058;3.698;2022-11-23T00:42:10;10.30;;;3.10;;
70073;SDS011;57445;51.058;3.698;2022-11-23T00:44:38;11.10;;;3.22;;
70073;SDS011;57445;51.058;3.698;2022-11-23T00:47:06;13.10;;;3.78;;
70073;SDS011;57445;51.058;3.698;2022-11-23T00:49:34;17.27;;;3.72;;
70073;SDS011;57445;51.058;3.698;2022-11-23T00:52:01;11.20;;;3.00;;
70073;SDS011;57445;51.058;3.698;2022-11-23T00:54:34;11.13;;;3.80;;
70073;SDS011;57445;51.058;3.698;2022-11-23T00:57:02;10.20;;;3.53;;
70073;SDS011;57445;51.058;3.698;2022-11-23T00:59:31;12.90;;;4.03;;
70073;SDS011;57445;51.058;3.698;2022-11-23T01:01:58;13.02;;;3.58;;
70073;SDS011;57445;51.058;3.698;2022-11-23T01:04:26;14.45;;;3.75;;
70073;SDS011;57445;51.058;3.698;2022-11-23T01:06:54;14.25;;;3.47;;
70073;SDS011;57445;51.058;3.698;2022-11-23T01:09:23;13.23;;;3.17;;
70073;SDS011;57445;51.058;3.698;2022-11-23T01:11:51;14.15;;;3.28;;
70073;SDS011;57445;51.058;3.698;2022-11-23T01:14:26;10.95;;;3.55;;
70073;SDS011;57445;51.058;3.698;2022-11-23T01:16:53;11.40;;;3.38;;
70073;SDS011;57445;51.058;3.698;2022-11-23T01:19:21;12.38;;;4.00;;
70073;SDS011;57445;51.058;3.698;2022-11-23T01:21:54;13.63;;;3.45;;
70073;SDS011;57445;51.058;3.698;2022-11-23T01:24:26;11.90;;;3.10;;
70073;SDS011;57445;51.058;3.698;2022-11-23T01:26:54;11.02;;;3.40;;
70073;SDS011;57445;51.058;3.698;2022-11-23T01:29:27;16.02;;;3.47;;
70073;SDS011;57445;51.058;3.698;2022-11-23T01:31:55;20.30;;;3.58;;
70073;SDS011;57445;51.058;3.698;2022-11-23T01:34:22;14.10;;;3.47;;
70073;SDS011;57445;51.058;3.698;2022-11-23T01:36:50;11.82;;;3.25;;
70073;SDS011;57445;51.058;3.698;2022-11-23T01:39:18;15.02;;;3.08;;
70073;SDS011;57445;51.058;3.698;2022-11-23T01:41:50;13.38;;;3.70;;
70073;SDS011;57445;51.058;3.698;2022-11-23T01:47:09;12.48;;;3.45;;
70073;SDS011;57445;51.058;3.698;2022-11-23T01:49:38;17.48;;;3.25;;
70073;SDS011;57445;51.058;3.698;2022-11-23T01:52:10;13.43;;;3.22;;
70073;SDS011;57445;51.058;3.698;2022-11-23T01:54:39;15.50;;;3.47;;
70073;SDS011;57445;51.058;3.698;2022-11-23T01:57:13;12.00;;;3.25;;
70073;SDS011;57445;51.058;3.698;2022-11-23T01:59:51;10.07;;;3.40;;
70073;SDS011;57445;51.058;3.698;2022-11-23T02:02:20;14.70;;;3.47;;
70073;SDS011;57445;51.058;3.698;2022-11-23T02:04:47;11.40;;;3.22;;
70073;SDS011;57445;51.058;3.698;2022-11-23T02:07:17;15.02;;;3.10;;
70073;SDS011;57445;51.058;3.698;2022-11-23T02:09:45;12.18;;;2.75;;
70073;SDS011;57445;51.058;3.698;2022-11-23T02:12:13;12.70;;;3.13;;
70073;SDS011;57445;51.058;3.698;2022-11-23T02:14:41;11.48;;;3.20;;
70073;SDS011;57445;51.058;3.698;2022-11-23T02:17:11;14.85;;;3.45;;
70073;SDS011;57445;51.058;3.698;2022-11-23T02:19:40;11.48;;;3.00;;
70073;SDS011;57445;51.058;3.698;2022-11-23T02:22:16;11.77;;;2.70;;
70073;SDS011;57445;51.058;3.698;2022-11-23T02:24:51;12.70;;;3.80;;
70073;SDS011;57445;51.058;3.698;2022-11-23T02:27:23;13.40;;;3.00;;
70073;SDS011;57445;51.058;3.698;2022-11-23T02:29:52;13.77;;;3.35;;
70073;SDS011;57445;51.058;3.698;2022-11-23T02:32:22;14.63;;;2.67;;
70073;SDS011;57445;51.058;3.698;2022-11-23T02:34:51;15.27;;;3.40;;
70073;SDS011;57445;51.058;3.698;2022-11-23T02:37:23;13.80;;;3.10;;
70073;SDS011;57445;51.058;3.698;2022-11-23T02:39:56;13.05;;;3.72;;
70073;SDS011;57445;51.058;3.698;2022-11-23T02:42:36;15.00;;;3.10;;
70073;SDS011;57445;51.058;3.698;2022-11-23T02:45:05;13.65;;;3.08;;
70073;SDS011;57445;51.058;3.698;2022-11-23T02:47:41;16.05;;;2.70;;
70073;SDS011;57445;51.058;3.698;2022-11-23T02:50:14;10.90;;;2.63;;
70073;SDS011;57445;51.058;3.698;2022-11-23T02:52:41;15.57;;;2.90;;
70073;SDS011;57445;51.058;3.698;2022-11-23T02:55:14;11.95;;;3.17;;
70073;SDS011;57445;51.058;3.698;2022-11-23T02:57:47;10.65;;;2.70;;
70073;SDS011;57445;51.058;3.698;2022-11-23T03:00:19;13.82;;;3.55;;
70073;SDS011;57445;51.058;3.698;2022-11-23T03:02:47;14.23;;;2.88;;
70073;SDS011;57445;51.058;3.698;2022-11-23T03:05:15;13.30;;;2.70;;
70073;SDS011;57445;51.058;3.698;2022-11-23T03:07:43;12.85;;;2.80;;
70073;SDS011;57445;51.058;3.698;2022-11-23T03:10:10;13.80;;;3.30;;
70073;SDS011;57445;51.058;3.698;2022-11-23T03:12:39;12.60;;;2.97;;
70073;SDS011;57445;51.058;3.698;2022-11-23T03:15:08;17.33;;;3.30;;
70073;SDS011;57445;51.058;3.698;2022-11-23T03:17:36;11.30;;;3.15;;
70073;SDS011;57445;51.058;3.698;2022-11-23T03:20:04;13.43;;;3.15;;
70073;SDS011;57445;51.058;3.698;2022-11-23T03:22:32;15.00;;;2.80;;
70073;SDS011;57445;51.058;3.698;2022-11-23T03:25:00;11.38;;;3.25;;
70073;SDS011;57445;51.058;3.698;2022-11-23T03:27:28;11.50;;;2.70;;
70073;SDS011;57445;51.058;3.698;2022-11-23T03:30:03;14.05;;;3.00;;
70073;SDS011;57445;51.058;3.698;2022-11-23T03:32:33;11.38;;;2.60;;
70073;SDS011;57445;51.058;3.698;2022-11-23T03:35:01;14.38;;;2.53;;
70073;SDS011;57445;51.058;3.698;2022-11-23T03:37:34;10.73;;;2.95;;
70073;SDS011;57445;51.058;3.698;2022-11-23T03:40:06;10.68;;;2.72;;
70073;SDS011;57445;51.058;3.698;2022-11-23T03:42:40;18.17;;;2.97;;
70073;SDS011;57445;51.058;3.698;2022-11-23T03:45:08;13.63;;;2.90;;
70073;SDS011;57445;51.058;3.698;2022-11-23T03:47:42;14.75;;;2.90;;
70073;SDS011;57445;51.058;3.698;2022-11-23T03:50:14;14.23;;;3.13;;
70073;SDS011;57445;51.058;3.698;2022-11-23T03:52:42;10.88;;;3.00;;
70073;SDS011;57445;51.058;3.698;2022-11-23T03:55:10;17.38;;;3.75;;
70073;SDS011;57445;51.058;3.698;2022-11-23T03:57:37;15.63;;;2.90;;
70073;SDS011;57445;51.058;3.698;2022-11-23T04:00:05;17.85;;;2.80;;
70073;SDS011;57445;51.058;3.698;2022-11-23T04:02:38;15.23;;;3.10;;
70073;SDS011;57445;51.058;3.698;2022-11-23T04:05:08;13.20;;;3.00;;
70073;SDS011;57445;51.058;3.698;2022-11-23T04:07:35;12.52;;;3.25;;
70073;SDS011;57445;51.058;3.698;2022-11-23T04:10:03;12.95;;;3.30;;
70073;SDS011;57445;51.058;3.698;2022-11-23T04:12:31;15.98;;;3.15;;
70073;SDS011;57445;51.058;3.698;2022-11-23T04:14:59;12.93;;;2.97;;
70073;SDS011;57445;51.058;3.698;2022-11-23T04:17:27;10.88;;;2.90;;
70073;SDS011;57445;51.058;3.698;2022-11-23T04:19:54;11.75;;;2.88;;
70073;SDS011;57445;51.058;3.698;2022-11-23T04:22:28;14.73;;;3.00;;
70073;SDS011;57445;51.058;3.698;2022-11-23T04:25:00;12.25;;;3.03;;
70073;SDS011;57445;51.058;3.698;2022-11-23T04:27:32;16.83;;;3.33;;
70073;SDS011;57445;51.058;3.698;2022-11-23T04:30:00;14.98;;;3.33;;
70073;SDS011;57445;51.058;3.698;2022-11-23T04:32:32;13.10;;;3.05;;
70073;SDS011;57445;51.058;3.698;2022-11-23T04:35:00;16.10;;;3.63;;
70073;SDS011;57445;51.058;3.698;2022-11-23T04:37:29;18.83;;;2.78;;
70073;SDS011;57445;51.058;3.698;2022-11-23T04:39:56;17.10;;;3.08;;
70073;SDS011;57445;51.058;3.698;2022-11-23T04:42:28;13.73;;;2.80;;
70073;SDS011;57445;51.058;3.698;2022-11-23T04:44:56;13.65;;;3.10;;
70073;SDS011;57445;51.058;3.698;2022-11-23T04:47:28;14.80;;;2.83;;
70073;SDS011;57445;51.058;3.698;2022-11-23T04:49:56;14.95;;;3.08;;
70073;SDS011;57445;51.058;3.698;2022-11-23T04:52:23;15.93;;;2.72;;
70073;SDS011;57445;51.058;3.698;2022-11-23T04:54:52;12.00;;;2.30;;
70073;SDS011;57445;51.058;3.698;2022-11-23T04:57:20;19.83;;;3.38;;
70073;SDS011;57445;51.058;3.698;2022-11-23T04:59:48;10.52;;;2.90;;
70073;SDS011;57445;51.058;3.698;2022-11-23T05:02:20;15.05;;;3.08;;
70073;SDS011;57445;51.058;3.698;2022-11-23T05:04:48;13.18;;;3.38;;
70073;SDS011;57445;51.058;3.698;2022-11-23T05:07:16;17.77;;;3.47;;
70073;SDS011;57445;51.058;3.698;2022-11-23T05:09:43;17.30;;;3.60;;
70073;SDS011;57445;51.058;3.698;2022-11-23T05:12:12;15.15;;;3.25;;
70073;SDS011;57445;51.058;3.698;2022-11-23T05:14:40;15.50;;;3.60;;
70073;SDS011;57445;51.058;3.698;2022-11-23T05:17:09;17.67;;;3.55;;
70073;SDS011;57445;51.058;3.698;2022-11-23T05:19:37;16.52;;;3.38;;
70073;SDS011;57445;51.058;3.698;2022-11-23T05:22:04;17.60;;;3.40;;
70073;SDS011;57445;51.058;3.698;2022-11-23T05:24:32;18.60;;;3.83;;
70073;SDS011;57445;51.058;3.698;2022-11-23T05:27:04;19.40;;;3.42;;
70073;SDS011;57445;51.058;3.698;2022-11-23T05:29:38;15.70;;;2.97;;
70073;SDS011;57445;51.058;3.698;2022-11-23T05:32:10;12.65;;;2.92;;
70073;SDS011;57445;51.058;3.698;2022-11-23T05:34:42;17.70;;;3.33;;
70073;SDS011;57445;51.058;3.698;2022-11-23T05:37:09;14.77;;;3.10;;
70073;SDS011;57445;51.058;3.698;2022-11-23T05:39:37;11.75;;;2.90;;
70073;SDS011;57445;51.058;3.698;2022-11-23T05:42:05;17.85;;;3.47;;
70073;SDS011;57445;51.058;3.698;2022-11-23T05:44:33;16.00;;;3.03;;
70073;SDS011;57445;51.058;3.698;2022-11-23T05:47:02;12.98;;;3.20;;
70073;SDS011;57445;51.058;3.698;2022-11-23T05:49:30;15.02;;;3.50;;
70073;SDS011;57445;51.058;3.698;2022-11-23T05:51:57;15.27;;;2.90;;
70073;SDS011;57445;51.058;3.698;2022-11-23T05:54:25;14.45;;;3.10;;
70073;SDS011;57445;51.058;3.698;2022-11-23T05:56:53;13.32;;;3.30;;
70073;SDS011;57445;51.058;3.698;2022-11-23T05:59:20;15.98;;;3.47;;
70073;SDS011;57445;51.058;3.698;2022-11-23T06:01:53;16.60;;;3.55;;
70073;SDS011;57445;51.058;3.698;2022-11-23T06:04:22;14.95;;;3.20;;
70073;SDS011;57445;51.058;3.698;2022-11-23T06:06:49;15.35;;;3.50;;
70073;SDS011;57445;51.058;3.698;2022-11-23T06:09:19;13.98;;;2.97;;
70073;SDS011;57445;51.058;3.698;2022-11-23T06:11:46;14.45;;;3.38;;
70073;SDS011;57445;51.058;3.698;2022-11-23T06:14:14;16.65;;;3.75;;
70073;SDS011;57445;51.058;3.698;2022-11-23T06:16:42;16.83;;;3.47;;
70073;SDS011;57445;51.058;3.698;2022-11-23T06:19:09;15.77;;;3.30;;
70073;SDS011;57445;51.058;3.698;2022-11-23T06:21:43;12.07;;;3.22;;
70073;SDS011;57445;51.058;3.698;2022-11-23T06:24:15;14.70;;;3.42;;
70073;SDS011;57445;51.058;3.698;2022-11-23T06:26:47;16.30;;;3.50;;
70073;SDS011;57445;51.058;3.698;2022-11-23T06:29:15;21.13;;;3.55;;
70073;SDS011;57445;51.058;3.698;2022-11-23T06:31:44;12.77;;;3.75;;
70073;SDS011;57445;51.058;3.698;2022-11-23T06:34:12;18.95;;;3.80;;
70073;SDS011;57445;51.058;3.698;2022-11-23T06:36:46;18.95;;;3.30;;
70073;SDS011;57445;51.058;3.698;2022-11-23T06:39:14;16.83;;;3.38;;
70073;SDS011;57445;51.058;3.698;2022-11-23T06:41:42;20.02;;;3.70;;
70073;SDS011;57445;51.058;3.698;2022-11-23T06:44:10;19.10;;;3.80;;
70073;SDS011;57445;51.058;3.698;2022-11-23T06:46:37;17.33;;;3.40;;
70073;SDS011;57445;51.058;3.698;2022-11-23T06:49:05;20.13;;;3.55;;
70073;SDS011;57445;51.058;3.698;2022-11-23T06:51:33;15.48;;;3.67;;
70073;SDS011;57445;51.058;3.698;2022-11-23T06:54:02;11.40;;;3.20;;
70073;SDS011;57445;51.058;3.698;2022-11-23T06:56:30;15.73;;;3.72;;
70073;SDS011;57445;51.058;3.698;2022-11-23T06:58:58;13.25;;;3.58;;
70073;SDS011;57445;51.058;3.698;2022-11-23T07:01:30;17.73;;;4.00;;
70073;SDS011;57445;51.058;3.698;2022-11-23T07:04:00;11.75;;;3.63;;
70073;SDS011;57445;51.058;3.698;2022-11-23T07:06:28;13.68;;;3.55;;
70073;SDS011;57445;51.058;3.698;2022-11-23T07:08:56;13.82;;;3.97;;
70073;SDS011;57445;51.058;3.698;2022-11-23T07:11:25;15.10;;;3.60;;
70073;SDS011;57445;51.058;3.698;2022-11-23T07:13:57;16.67;;;3.45;;
70073;SDS011;57445;51.058;3.698;2022-11-23T07:16:25;17.67;;;4.00;;
70073;SDS011;57445;51.058;3.698;2022-11-23T07:18:53;17.08;;;3.97;;
70073;SDS011;57445;51.058;3.698;2022-11-23T07:21:20;16.20;;;3.58;;
70073;SDS011;57445;51.058;3.698;2022-11-23T07:23:48;14.77;;;3.67;;
70073;SDS011;57445;51.058;3.698;2022-11-23T07:26:20;22.58;;;4.00;;
70073;SDS011;57445;51.058;3.698;2022-11-23T07:28:54;17.38;;;3.55;;
70073;SDS011;57445;51.058;3.698;2022-11-23T07:31:22;16.30;;;4.07;;
70073;SDS011;57445;51.058;3.698;2022-11-23T07:33:54;22.50;;;3.70;;
70073;SDS011;57445;51.058;3.698;2022-11-23T07:36:22;17.35;;;3.92;;
70073;SDS011;57445;51.058;3.698;2022-11-23T07:38:54;15.10;;;3.83;;
70073;SDS011;57445;51.058;3.698;2022-11-23T07:41:21;19.00;;;3.72;;
70073;SDS011;57445;51.058;3.698;2022-11-23T07:43:52;13.07;;;3.83;;
70073;SDS011;57445;51.058;3.698;2022-11-23T07:46:21;19.00;;;3.80;;
70073;SDS011;57445;51.058;3.698;2022-11-23T07:48:48;16.40;;;3.63;;
70073;SDS011;57445;51.058;3.698;2022-11-23T07:51:21;25.92;;;4.82;;
70073;SDS011;57445;51.058;3.698;2022-11-23T07:53:53;18.65;;;4.10;;
70073;SDS011;57445;51.058;3.698;2022-11-23T07:56:25;16.40;;;4.32;;
70073;SDS011;57445;51.058;3.698;2022-11-23T07:58:54;20.67;;;3.97;;
70073;SDS011;57445;51.058;3.698;2022-11-23T08:01:26;22.23;;;4.05;;
70073;SDS011;57445;51.058;3.698;2022-11-23T08:03:56;15.57;;;4.47;;
70073;SDS011;57445;51.058;3.698;2022-11-23T08:06:29;15.18;;;4.82;;
70073;SDS011;57445;51.058;3.698;2022-11-23T08:09:02;19.83;;;4.93;;
70073;SDS011;57445;51.058;3.698;2022-11-23T08:11:32;15.55;;;4.70;;
70073;SDS011;57445;51.058;3.698;2022-11-23T08:14:01;14.43;;;4.07;;
70073;SDS011;57445;51.058;3.698;2022-11-23T08:16:28;19.15;;;4.28;;
70073;SDS011;57445;51.058;3.698;2022-11-23T08:18:56;14.52;;;4.40;;
70073;SDS011;57445;51.058;3.698;2022-11-23T08:21:24;20.33;;;4.20;;
70073;SDS011;57445;51.058;3.698;2022-11-23T08:23:51;14.70;;;3.90;;
70073;SDS011;57445;51.058;3.698;2022-11-23T08:26:23;15.18;;;4.70;;
70073;SDS011;57445;51.058;3.698;2022-11-23T08:28:51;15.35;;;4.38;;
70073;SDS011;57445;51.058;3.698;2022-11-23T08:31:20;15.20;;;4.03;;
70073;SDS011;57445;51.058;3.698;2022-11-23T08:33:48;10.70;;;3.60;;
70073;SDS011;57445;51.058;3.698;2022-11-23T08:36:21;14.65;;;3.80;;
70073;SDS011;57445;51.058;3.698;2022-11-23T08:38:48;24.33;;;4.88;;
70073;SDS011;57445;51.058;3.698;2022-11-23T08:41:22;15.57;;;3.85;;
70073;SDS011;57445;51.058;3.698;2022-11-23T08:43:49;15.27;;;3.65;;
70073;SDS011;57445;51.058;3.698;2022-11-23T08:46:17;14.73;;;3.63;;
70073;SDS011;57445;51.058;3.698;2022-11-23T08:48:51;13.63;;;3.65;;
70073;SDS011;57445;51.058;3.698;2022-11-23T08:51:23;16.15;;;4.13;;
70073;SDS011;57445;51.058;3.698;2022-11-23T08:53:51;12.93;;;3.60;;
70073;SDS011;57445;51.058;3.698;2022-11-23T08:56:18;17.20;;;3.70;;
70073;SDS011;57445;51.058;3.698;2022-11-23T08:58:50;14.07;;;4.18;;
70073;SDS011;57445;51.058;3.698;2022-11-23T09:01:18;9.30;;;3.67;;
70073;SDS011;57445;51.058;3.698;2022-11-23T09:03:46;23.20;;;4.70;;
70073;SDS011;57445;51.058;3.698;2022-11-23T09:06:19;13.13;;;4.13;;
70073;SDS011;57445;51.058;3.698;2022-11-23T09:08:53;19.20;;;3.72;;
70073;SDS011;57445;51.058;3.698;2022-11-23T09:11:21;13.60;;;4.05;;
70073;SDS011;57445;51.058;3.698;2022-11-23T09:13:55;11.20;;;3.22;;
70073;SDS011;57445;51.058;3.698;2022-11-23T09:16:23;15.25;;;3.20;;
70073;SDS011;57445;51.058;3.698;2022-11-23T09:18:53;10.15;;;3.45;;
70073;SDS011;57445;51.058;3.698;2022-11-23T09:21:23;15.48;;;3.13;;
70073;SDS011;57445;51.058;3.698;2022-11-23T09:26:27;10.03;;;2.80;;
70073;SDS011;57445;51.058;3.698;2022-11-23T09:29:01;16.60;;;3.53;;
70073;SDS011;57445;51.058;3.698;2022-11-23T09:31:33;13.13;;;3.75;;
70073;SDS011;57445;51.058;3.698;2022-11-23T09:34:06;15.00;;;3.22;;
70073;SDS011;57445;51.058;3.698;2022-11-23T09:36:35;14.18;;;3.88;;
70073;SDS011;57445;51.058;3.698;2022-11-23T09:39:07;12.02;;;3.50;;
70073;SDS011;57445;51.058;3.698;2022-11-23T09:41:48;12.00;;;3.22;;
70073;SDS011;57445;51.058;3.698;2022-11-23T09:44:44;12.50;;;3.65;;
70073;SDS011;57445;51.058;3.698;2022-11-23T09:47:33;13.45;;;3.88;;
70073;SDS011;57445;51.058;3.698;2022-11-23T09:50:17;12.55;;;3.67;;
70073;SDS011;57445;51.058;3.698;2022-11-23T09:52:58;14.57;;;3.80;;
70073;SDS011;57445;51.058;3.698;2022-11-23T09:55:34;12.88;;;3.78;;
70073;SDS011;57445;51.058;3.698;2022-11-23T09:58:05;11.02;;;3.40;;
70073;SDS011;57445;51.058;3.698;2022-11-23T10:00:37;14.20;;;3.90;;
70073;SDS011;57445;51.058;3.698;2022-11-23T10:03:10;14.25;;;4.03;;
70073;SDS011;57445;51.058;3.698;2022-11-23T10:05:42;12.65;;;3.60;;
70073;SDS011;57445;51.058;3.698;2022-11-23T10:08:25;11.60;;;3.67;;
70073;SDS011;57445;51.058;3.698;2022-11-23T10:11:14;13.82;;;3.90;;
70073;SDS011;57445;51.058;3.698;2022-11-23T10:14:13;9.90;;;3.35;;
70073;SDS011;57445;51.058;3.698;2022-11-23T10:16:54;12.73;;;3.75;;
70073;SDS011;57445;51.058;3.698;2022-11-23T10:19:32;16.52;;;4.30;;
70073;SDS011;57445;51.058;3.698;2022-11-23T10:22:14;8.70;;;3.22;;
70073;SDS011;57445;51.058;3.698;2022-11-23T10:24:53;11.35;;;3.67;;
70073;SDS011;57445;51.058;3.698;2022-11-23T10:27:27;14.98;;;3.80;;
70073;SDS011;57445;51.058;3.698;2022-11-23T10:30:05;12.75;;;3.03;;
70073;SDS011;57445;51.058;3.698;2022-11-23T10:32:40;12.35;;;3.38;;
70073;SDS011;57445;51.058;3.698;2022-11-23T10:35:16;12.25;;;4.03;;
70073;SDS011;57445;51.058;3.698;2022-11-23T10:37:49;9.25;;;3.25;;
70073;SDS011;57445;51.058;3.698;2022-11-23T10:40:20;12.82;;;3.42;;
70073;SDS011;57445;51.058;3.698;2022-11-23T10:42:50;11.23;;;3.75;;
70073;SDS011;57445;51.058;3.698;2022-11-23T10:45:24;17.23;;;3.15;;
70073;SDS011;57445;51.058;3.698;2022-11-23T10:47:58;13.15;;;3.05;;
70073;SDS011;57445;51.058;3.698;2022-11-23T10:50:27;9.98;;;3.30;;
70073;SDS011;57445;51.058;3.698;2022-11-23T10:52:59;7.35;;;3.00;;
70073;SDS011;57445;51.058;3.698;2022-11-23T10:55:30;9.10;;;3.30;;
70073;SDS011;57445;51.058;3.698;2022-11-23T10:57:59;8.95;;;3.10;;
70073;SDS011;57445;51.058;3.698;2022-11-23T11:00:31;10.05;;;3.05;;
70073;SDS011;57445;51.058;3.698;2022-11-23T11:03:04;9.27;;;3.03;;
70073;SDS011;57445;51.058;3.698;2022-11-23T11:05:49;9.35;;;3.60;;
70073;SDS011;57445;51.058;3.698;2022-11-23T11:08:28;7.28;;;3.13;;
70073;SDS011;57445;51.058;3.698;2022-11-23T11:11:03;7.95;;;2.83;;
70073;SDS011;57445;51.058;3.698;2022-11-23T11:13:39;11.93;;;3.53;;
70073;SDS011;57445;51.058;3.698;2022-11-23T11:16:16;13.88;;;2.78;;
70073;SDS011;57445;51.058;3.698;2022-11-23T11:18:46;9.35;;;3.10;;
70073;SDS011;57445;51.058;3.698;2022-11-23T11:21:18;10.45;;;2.47;;
70073;SDS011;57445;51.058;3.698;2022-11-23T11:23:54;11.05;;;2.83;;
70073;SDS011;57445;51.058;3.698;2022-11-23T11:26:26;9.65;;;2.53;;
70073;SDS011;57445;51.058;3.698;2022-11-23T11:28:56;10.30;;;2.80;;
70073;SDS011;57445;51.058;3.698;2022-11-23T11:34:23;9.73;;;2.42;;
70073;SDS011;57445;51.058;3.698;2022-11-23T11:36:59;8.77;;;2.30;;
70073;SDS011;57445;51.058;3.698;2022-11-23T11:39:34;10.07;;;2.45;;
70073;SDS011;57445;51.058;3.698;2022-11-23T11:42:10;14.32;;;2.55;;
70073;SDS011;57445;51.058;3.698;2022-11-23T11:44:48;9.50;;;2.60;;
70073;SDS011;57445;51.058;3.698;2022-11-23T11:47:23;8.80;;;2.38;;
70073;SDS011;57445;51.058;3.698;2022-11-23T11:49:55;8.27;;;2.35;;
70073;SDS011;57445;51.058;3.698;2022-11-23T11:52:26;14.45;;;2.75;;
70073;SDS011;57445;51.058;3.698;2022-11-23T11:55:00;9.55;;;2.63;;
70073;SDS011;57445;51.058;3.698;2022-11-23T11:57:34;8.88;;;2.67;;
70073;SDS011;57445;51.058;3.698;2022-11-23T12:00:06;11.32;;;2.83;;
70073;SDS011;57445;51.058;3.698;2022-11-23T12:02:41;11.00;;;2.90;;
70073;SDS011;57445;51.058;3.698;2022-11-23T12:05:19;12.50;;;3.22;;
70073;SDS011;57445;51.058;3.698;2022-11-23T12:07:51;11.88;;;3.22;;
70073;SDS011;57445;51.058;3.698;2022-11-23T12:10:26;11.38;;;2.90;;
70073;SDS011;57445;51.058;3.698;2022-11-23T12:12:57;10.35;;;3.00;;
70073;SDS011;57445;51.058;3.698;2022-11-23T12:15:27;11.50;;;2.90;;
70073;SDS011;57445;51.058;3.698;2022-11-23T12:21:01;11.43;;;2.70;;
70073;SDS011;57445;51.058;3.698;2022-11-23T12:23:36;8.35;;;2.85;;
70073;SDS011;57445;51.058;3.698;2022-11-23T12:26:15;11.00;;;3.30;;
70073;SDS011;57445;51.058;3.698;2022-11-23T12:28:50;12.88;;;3.42;;
70073;SDS011;57445;51.058;3.698;2022-11-23T12:31:41;8.55;;;2.88;;
70073;SDS011;57445;51.058;3.698;2022-11-23T12:34:15;10.15;;;3.13;;
70073;SDS011;57445;51.058;3.698;2022-11-23T12:37:05;7.72;;;2.55;;
70073;SDS011;57445;51.058;3.698;2022-11-23T12:39:47;10.65;;;2.70;;
70073;SDS011;57445;51.058;3.698;2022-11-23T12:42:30;8.52;;;2.80;;
70073;SDS011;57445;51.058;3.698;2022-11-23T12:45:25;7.00;;;2.60;;
70073;SDS011;57445;51.058;3.698;2022-11-23T12:48:30;5.57;;;2.33;;
70073;SDS011;57445;51.058;3.698;2022-11-23T12:53:42;6.15;;;2.67;;
70073;SDS011;57445;51.058;3.698;2022-11-23T12:56:19;9.35;;;2.60;;
70073;SDS011;57445;51.058;3.698;2022-11-23T12:58:57;7.88;;;2.67;;
70073;SDS011;57445;51.058;3.698;2022-11-23T13:01:32;6.03;;;2.42;;
70073;SDS011;57445;51.058;3.698;2022-11-23T13:07:29;5.65;;;2.85;;
70073;SDS011;57445;51.058;3.698;2022-11-23T13:10:24;5.25;;;2.45;;
70073;SDS011;57445;51.058;3.698;2022-11-23T13:13:11;7.55;;;3.10;;
70073;SDS011;57445;51.058;3.698;2022-11-23T13:15:53;7.50;;;2.75;;
70073;SDS011;57445;51.058;3.698;2022-11-23T13:19:00;8.35;;;3.60;;
70073;SDS011;57445;51.058;3.698;2022-11-23T13:21:46;9.93;;;2.75;;
70073;SDS011;57445;51.058;3.698;2022-11-23T13:24:22;7.05;;;2.35;;
70073;SDS011;57445;51.058;3.698;2022-11-23T13:30:13;7.45;;;2.90;;
70073;SDS011;57445;51.058;3.698;2022-11-23T13:32:55;7.13;;;2.75;;
70073;SDS011;57445;51.058;3.698;2022-11-23T13:38:24;5.63;;;2.53;;
70073;SDS011;57445;51.058;3.698;2022-11-23T13:44:21;5.32;;;2.72;;
70073;SDS011;57445;51.058;3.698;2022-11-23T13:47:05;8.15;;;2.95;;
70073;SDS011;57445;51.058;3.698;2022-11-23T13:49:44;7.82;;;2.53;;
70073;SDS011;57445;51.058;3.698;2022-11-23T13:52:28;6.25;;;3.00;;
70073;SDS011;57445;51.058;3.698;2022-11-23T13:55:02;7.40;;;2.88;;
70073;SDS011;57445;51.058;3.698;2022-11-23T14:00:44;8.15;;;2.95;;
70073;SDS011;57445;51.058;3.698;2022-11-23T14:06:23;6.70;;;3.40;;
70073;SDS011;57445;51.058;3.698;2022-11-23T14:09:08;7.05;;;3.15;;
70073;SDS011;57445;51.058;3.698;2022-11-23T14:11:41;7.75;;;3.17;;
70073;SDS011;57445;51.058;3.698;2022-11-23T14:14:30;8.52;;;2.97;;
70073;SDS011;57445;51.058;3.698;2022-11-23T14:20:26;7.85;;;3.13;;
70073;SDS011;57445;51.058;3.698;2022-11-23T14:23:12;7.22;;;3.03;;
70073;SDS011;57445;51.058;3.698;2022-11-23T14:26:02;8.15;;;2.90;;
70073;SDS011;57445;51.058;3.698;2022-11-23T14:28:43;8.85;;;2.97;;
70073;SDS011;57445;51.058;3.698;2022-11-23T14:31:22;7.22;;;3.00;;
70073;SDS011;57445;51.058;3.698;2022-11-23T14:36:33;6.55;;;3.25;;
70073;SDS011;57445;51.058;3.698;2022-11-23T14:42:10;7.15;;;2.80;;
70073;SDS011;57445;51.058;3.698;2022-11-23T14:44:45;7.43;;;2.70;;
70073;SDS011;57445;51.058;3.698;2022-11-23T14:47:23;6.45;;;2.63;;
70073;SDS011;57445;51.058;3.698;2022-11-23T14:49:52;7.00;;;2.80;;
70073;SDS011;57445;51.058;3.698;2022-11-23T14:52:20;6.38;;;2.55;;
70073;SDS011;57445;51.058;3.698;2022-11-23T14:54:54;6.85;;;2.58;;
70073;SDS011;57445;51.058;3.698;2022-11-23T14:57:25;8.68;;;2.53;;
70073;SDS011;57445;51.058;3.698;2022-11-23T14:59:56;8.50;;;3.05;;
70073;SDS011;57445;51.058;3.698;2022-11-23T15:02:28;5.95;;;2.50;;
70073;SDS011;57445;51.058;3.698;2022-11-23T15:05:02;7.60;;;2.67;;
70073;SDS011;57445;51.058;3.698;2022-11-23T15:07:38;6.65;;;2.55;;
70073;SDS011;57445;51.058;3.698;2022-11-23T15:10:16;8.77;;;2.65;;
70073;SDS011;57445;51.058;3.698;2022-11-23T15:12:53;8.25;;;2.70;;
70073;SDS011;57445;51.058;3.698;2022-11-23T15:15:26;4.82;;;2.35;;
70073;SDS011;57445;51.058;3.698;2022-11-23T15:17:56;6.85;;;2.60;;
70073;SDS011;57445;51.058;3.698;2022-11-23T15:20:25;8.15;;;2.75;;
70073;SDS011;57445;51.058;3.698;2022-11-23T15:22:57;7.65;;;2.70;;
70073;SDS011;57445;51.058;3.698;2022-11-23T15:25:25;8.20;;;2.90;;
70073;SDS011;57445;51.058;3.698;2022-11-23T15:27:59;9.07;;;3.05;;
70073;SDS011;57445;51.058;3.698;2022-11-23T15:30:28;8.00;;;2.88;;
70073;SDS011;57445;51.058;3.698;2022-11-23T15:32:57;9.82;;;3.08;;
70073;SDS011;57445;51.058;3.698;2022-11-23T15:35:28;7.88;;;2.67;;
70073;SDS011;57445;51.058;3.698;2022-11-23T15:38:02;8.48;;;3.33;;
70073;SDS011;57445;51.058;3.698;2022-11-23T15:40:35;9.45;;;2.92;;
70073;SDS011;57445;51.058;3.698;2022-11-23T15:43:04;10.90;;;3.42;;
70073;SDS011;57445;51.058;3.698;2022-11-23T15:48:28;10.38;;;3.33;;
70073;SDS011;57445;51.058;3.698;2022-11-23T15:50:59;10.18;;;3.38;;
70073;SDS011;57445;51.058;3.698;2022-11-23T15:53:28;7.60;;;2.90;;